Time;durP1;ratioP1;P1;durP2;ratioP2;P2;SDS_P1;SDS_P2;PMS_P1;PMS_P2;Temp;Humidity;BMP_temperature;BMP_pressure;BME280_temperature;BME280_humidity;BME280_pressure;Samples;Min_cycle;Max_cycle;Signal;HPM_P1;HPM_P2
2021/06/25 00:01:59;;;;;;;;;22.75;20.25;;;;;18.45;46.70;101675.63;4943579;28;45617;-56
2021/06/25 00:04:24;;;;;;;;;23.00;18.00;;;;;18.43;46.56;101674.78;4944472;28;46194;-56
2021/06/25 00:06:49;;;;;;;;;20.75;20.50;;;;;18.40;46.84;101674.91;4959107;28;45318;-56
2021/06/25 00:09:15;;;;;;;;;21.75;19.50;;;;;18.38;46.75;101673.16;4944912;28;45389;-56
2021/06/25 00:11:40;;;;;;;;;20.00;16.50;;;;;18.35;46.80;101671.47;4946107;28;45279;-57
2021/06/25 00:14:06;;;;;;;;;21.50;20.00;;;;;18.30;47.05;101671.66;4943154;28;45438;-56
2021/06/25 00:16:31;;;;;;;;;20.00;18.00;;;;;18.28;46.69;101664.63;4953188;28;45359;-56
2021/06/25 00:18:57;;;;;;;;;22.25;19.75;;;;;18.23;46.89;101662.13;4943556;28;45379;-56
2021/06/25 00:21:22;;;;;;;;;20.25;19.50;;;;;18.23;46.97;101666.59;4943199;28;45492;-56
2021/06/25 00:23:47;;;;;;;;;22.75;20.50;;;;;18.18;46.90;101656.06;4943387;28;45306;-56
2021/06/25 00:26:13;;;;;;;;;18.25;16.00;;;;;18.14;47.03;101659.75;4941755;28;45314;-56
2021/06/25 00:28:38;;;;;;;;;17.75;17.75;;;;;18.13;46.96;101664.19;4943024;28;45316;-56
2021/06/25 00:31:04;;;;;;;;;24.75;24.00;;;;;18.11;47.29;101663.38;4942836;28;45478;-55
2021/06/25 00:33:29;;;;;;;;;24.00;21.75;;;;;18.09;47.25;101659.03;4943251;28;45269;-55
2021/06/25 00:35:55;;;;;;;;;22.25;19.75;;;;;18.03;47.42;101650.31;4957890;28;45262;-56
2021/06/25 00:38:20;;;;;;;;;21.00;18.25;;;;;18.02;47.36;101650.34;4943173;28;45234;-56
2021/06/25 00:40:46;;;;;;;;;26.25;25.25;;;;;17.99;47.41;101647.81;4943027;28;45456;-56
2021/06/25 00:43:11;;;;;;;;;24.25;20.75;;;;;17.97;47.57;101652.28;4942780;28;45320;-56
2021/06/25 00:45:36;;;;;;;;;28.75;25.00;;;;;17.93;47.54;101650.63;4941767;28;45270;-56
2021/06/25 00:48:02;;;;;;;;;23.75;21.50;;;;;17.90;47.83;101648.03;4942957;28;45214;-56
2021/06/25 00:50:31;;;;;;;;;26.50;22.00;;;;;17.86;47.74;101647.25;4942816;28;45548;-56
2021/06/25 00:52:58;;;;;;;;;28.25;23.00;;;;;17.83;48.08;101648.22;4942885;28;46331;-56
2021/06/25 00:55:25;;;;;;;;;23.75;23.00;;;;;17.80;47.78;101640.34;4942510;28;45318;-55
2021/06/25 00:57:51;;;;;;;;;22.00;19.75;;;;;17.75;47.91;101639.63;4942632;28;45310;-56
2021/06/25 01:00:17;;;;;;;;;25.25;22.00;;;;;17.71;48.13;101632.66;4942513;28;45456;-56
2021/06/25 01:02:43;;;;;;;;;23.50;20.75;;;;;17.69;48.02;101642.47;4942634;28;47192;-55
2021/06/25 01:05:11;;;;;;;;;25.00;24.00;;;;;17.65;48.32;101623.06;4942397;28;45300;-55
2021/06/25 01:07:36;;;;;;;;;27.25;26.25;;;;;17.62;48.43;101623.19;4942657;28;45306;-55
2021/06/25 01:10:08;;;;;;;;;21.50;21.00;;;;;17.60;48.43;101637.44;4942565;28;45348;-55
2021/06/25 01:12:34;;;;;;;;;23.25;22.50;;;;;17.58;48.38;101631.28;4942317;28;46060;-55
2021/06/25 01:14:59;;;;;;;;;26.75;24.50;;;;;17.54;48.55;101623.38;4942176;28;45299;-55
2021/06/25 01:17:37;;;;;;;;;24.75;22.00;;;;;17.51;48.50;101625.28;4941482;28;45310;-55
2021/06/25 01:20:09;;;;;;;;;26.50;23.25;;;;;17.47;48.61;101621.84;4942423;28;45267;-55
2021/06/25 01:22:35;;;;;;;;;22.50;20.50;;;;;17.45;48.80;101621.00;4941005;28;46158;-55
2021/06/25 01:25:05;;;;;;;;;30.50;25.00;;;;;17.43;48.84;101625.47;4942572;28;45337;-55
2021/06/25 01:27:31;;;;;;;;;28.50;26.50;;;;;17.38;48.89;101615.00;4942230;28;45349;-55
2021/06/25 01:29:58;;;;;;;;;24.00;21.25;;;;;17.38;48.92;101619.44;4940629;28;45281;-55
2021/06/25 01:32:23;;;;;;;;;25.00;23.50;;;;;17.35;49.25;101620.38;4957095;28;46405;-53
2021/06/25 01:34:49;;;;;;;;;26.00;23.50;;;;;17.33;49.11;101622.25;4942288;28;45314;-55
2021/06/25 01:37:15;;;;;;;;;26.75;24.00;;;;;17.30;49.55;101617.00;4942297;28;45294;-55
2021/06/25 01:39:41;;;;;;;;;21.50;20.25;;;;;17.28;49.45;101613.53;4942037;28;45412;-55
2021/06/25 01:42:07;;;;;;;;;27.75;22.50;;;;;17.26;49.54;101614.47;4942164;28;46245;-55
2021/06/25 01:44:35;;;;;;;;;28.25;23.50;;;;;17.22;49.55;101611.91;4941737;28;45301;-55
2021/06/25 01:47:02;;;;;;;;;28.00;23.75;;;;;17.18;49.36;101610.25;4942287;28;45120;-53
2021/06/25 01:49:28;;;;;;;;;23.50;21.50;;;;;17.19;49.53;101614.66;4941852;28;45361;-53
2021/06/25 01:51:53;;;;;;;;;30.00;28.00;;;;;17.15;49.70;101606.81;4942114;28;45294;-55
2021/06/25 01:54:18;;;;;;;;;26.25;22.75;;;;;17.14;49.86;101605.94;4941882;28;45292;-54
2021/06/25 01:56:44;;;;;;;;;26.00;26.00;;;;;17.12;49.48;101601.56;4941531;28;45335;-53
2021/06/25 01:59:09;;;;;;;;;26.25;25.00;;;;;17.09;49.59;101607.84;4941584;28;45525;-54
2021/06/25 02:01:35;;;;;;;;;24.75;20.50;;;;;17.06;49.97;101599.97;4942083;28;45357;-54
2021/06/25 02:04:00;;;;;;;;;24.00;22.00;;;;;17.03;50.03;101606.25;4941602;28;45472;-54
2021/06/25 02:06:26;;;;;;;;;26.50;23.50;;;;;17.01;50.15;101604.53;4942013;28;45428;-55
2021/06/25 02:08:51;;;;;;;;;23.50;23.50;;;;;16.97;49.85;101603.75;4941762;28;45745;-55
2021/06/25 02:11:18;;;;;;;;;30.00;23.50;;;;;16.96;50.25;101601.16;4941696;28;45369;-55
2021/06/25 02:13:43;;;;;;;;;27.25;24.75;;;;;16.94;50.13;101598.50;4941278;28;45338;-55
2021/06/25 02:16:09;;;;;;;;;21.75;21.00;;;;;16.91;50.50;101593.31;4941707;28;45304;-55
2021/06/25 02:18:34;;;;;;;;;27.00;24.75;;;;;16.89;50.37;101589.78;4941646;28;45250;-54
2021/06/25 02:21:00;;;;;;;;;24.50;22.50;;;;;16.86;50.28;101587.22;4941499;28;45223;-55
2021/06/25 02:23:26;;;;;;;;;28.00;24.50;;;;;16.82;50.65;101578.47;4941605;28;45247;-54
2021/06/25 02:25:51;;;;;;;;;28.25;26.75;;;;;16.78;50.46;101576.81;4940547;28;45499;-55
2021/06/25 02:28:16;;;;;;;;;30.00;28.00;;;;;16.78;50.64;101579.47;4941259;28;45471;-53
2021/06/25 02:30:42;;;;;;;;;33.50;25.50;;;;;16.75;50.38;101576.88;4941250;28;45508;-54
2021/06/25 02:33:08;;;;;;;;;27.75;23.75;;;;;16.72;50.93;101575.19;4941398;28;45244;-54
2021/06/25 02:35:34;;;;;;;;;30.75;26.50;;;;;16.68;50.80;101564.72;4941612;28;45160;-53
2021/06/25 02:37:59;;;;;;;;;29.25;28.00;;;;;16.62;50.97;101564.88;4941379;28;45298;-54
2021/06/25 02:40:24;;;;;;;;;27.75;24.75;;;;;16.61;51.24;101568.44;4941279;28;45613;-53
2021/06/25 02:42:50;;;;;;;;;23.75;22.25;;;;;16.56;50.94;101564.13;4940996;28;45393;-54
2021/06/25 02:45:16;;;;;;;;;24.50;24.00;;;;;16.51;51.20;101568.66;4940124;28;45340;-54
2021/06/25 02:47:42;;;;;;;;;28.75;26.50;;;;;16.48;50.94;101563.44;4941154;28;45251;-53
2021/06/25 02:50:09;;;;;;;;;28.25;22.25;;;;;16.45;51.04;101563.50;4941176;28;45502;-54
2021/06/25 02:52:37;;;;;;;;;31.00;26.00;;;;;16.42;51.18;101560.94;4923855;28;45278;-54
2021/06/25 02:55:04;;;;;;;;;28.00;25.00;;;;;16.40;51.51;101568.94;4941246;28;45238;-51
2021/06/25 02:57:29;;;;;;;;;24.50;22.25;;;;;16.36;51.61;101567.28;4940841;28;45428;-54
2021/06/25 02:59:54;;;;;;;;;26.25;23.50;;;;;16.33;51.78;101563.84;4940930;28;45387;-54
2021/06/25 03:02:20;;;;;;;;;25.00;22.75;;;;;16.30;51.73;101566.53;4939775;28;46152;-54
2021/06/25 03:04:45;;;;;;;;;33.00;28.25;;;;;16.25;51.63;101562.25;4941266;28;45278;-54
2021/06/25 03:07:10;;;;;;;;;27.75;27.00;;;;;16.25;52.07;101556.94;4945356;28;45437;-53
2021/06/25 03:09:37;;;;;;;;;28.25;24.50;;;;;16.23;51.77;101561.41;4941229;28;45477;-54
2021/06/25 03:12:03;;;;;;;;;26.25;25.00;;;;;16.22;51.70;101561.44;4944134;28;45282;-54
2021/06/25 03:14:29;;;;;;;;;27.75;24.00;;;;;16.20;51.92;101565.91;4944234;28;45330;-53
2021/06/25 03:16:54;;;;;;;;;28.75;24.75;;;;;16.15;52.00;101550.13;4944025;28;45516;-54
2021/06/25 03:19:19;;;;;;;;;27.25;23.75;;;;;16.17;52.14;101558.03;4942826;28;46968;-54
2021/06/25 03:21:45;;;;;;;;;28.50;25.75;;;;;16.14;51.93;101558.97;4958930;28;45345;-54
2021/06/25 03:24:10;;;;;;;;;29.25;27.75;;;;;16.09;51.91;101553.78;4944492;28;45275;-53
2021/06/25 03:26:36;;;;;;;;;25.75;25.50;;;;;16.08;52.12;101548.53;4943941;28;45153;-54
2021/06/25 03:29:02;;;;;;;;;32.00;29.00;;;;;16.04;52.27;101547.72;4943671;28;45176;-52
2021/06/25 03:31:27;;;;;;;;;27.25;26.00;;;;;16.04;52.45;101553.03;4944209;28;45306;-54
2021/06/25 03:33:52;;;;;;;;;28.25;25.75;;;;;16.03;52.57;101561.03;4944157;28;45379;-54
2021/06/25 03:36:18;;;;;;;;;26.00;22.75;;;;;16.01;52.03;101557.53;4958774;28;45625;-53
2021/06/25 03:38:43;;;;;;;;;25.00;23.75;;;;;15.98;52.33;101555.81;4943983;28;46026;-54
2021/06/25 03:41:09;;;;;;;;;27.00;25.25;;;;;15.96;52.29;101554.13;4943813;28;45246;-55
2021/06/25 03:43:34;;;;;;;;;26.25;25.75;;;;;15.95;52.44;101555.00;4943956;28;45289;-55
2021/06/25 03:46:00;;;;;;;;;27.00;25.00;;;;;15.91;52.63;101557.75;4942593;28;45515;-54
2021/06/25 03:48:25;;;;;;;;;30.50;26.50;;;;;15.89;52.65;101564.00;4943779;28;46232;-54
2021/06/25 03:50:50;;;;;;;;;25.50;23.75;;;;;15.87;52.79;101558.75;4942503;28;45372;-55
2021/06/25 03:53:16;;;;;;;;;26.00;24.75;;;;;15.85;53.02;101565.84;4944116;28;45286;-54
2021/06/25 03:56:09;;;;;;;;;30.50;30.00;;;;;15.85;52.69;101570.28;4943686;28;45248;-55
2021/06/25 03:58:27;;;;;;;;;28.00;26.50;;;;;15.75;52.90;101545.75;4943045;28;45354;-53
2021/06/25 04:00:53;;;;;;;;;24.00;22.00;;;;;15.81;52.91;101556.19;4943506;28;45332;-54
2021/06/25 04:03:18;;;;;;;;;25.00;24.00;;;;;15.82;52.76;101557.94;4943695;28;45294;-54
2021/06/25 04:05:44;;;;;;;;;26.50;23.75;;;;;15.81;53.13;101560.59;4943297;28;45321;-54
2021/06/25 04:08:09;;;;;;;;;28.00;28.00;;;;;15.81;53.06;101563.25;4943337;28;46077;-53
2021/06/25 04:10:35;;;;;;;;;30.75;28.50;;;;;15.80;53.21;101554.44;4942170;28;45802;-54
2021/06/25 04:13:00;;;;;;;;;30.00;27.75;;;;;15.79;53.14;101554.50;4943329;28;45239;-55
2021/06/25 04:15:26;;;;;;;;;25.25;25.25;;;;;15.78;53.19;101545.66;4943127;28;45168;-53
2021/06/25 04:17:51;;;;;;;;;28.25;27.75;;;;;15.78;53.38;101553.59;4943337;28;45370;-54
2021/06/25 04:20:17;;;;;;;;;30.50;28.50;;;;;15.79;53.20;101547.41;4942999;28;45453;-54
2021/06/25 04:22:44;;;;;;;;;28.50;25.00;;;;;15.76;53.30;101552.78;4943386;28;45279;-54
2021/06/25 04:25:10;;;;;;;;;31.75;29.50;;;;;15.78;53.56;101556.25;4958004;28;45566;-54
2021/06/25 04:27:35;;;;;;;;;31.75;27.75;;;;;15.78;53.47;101558.91;4942629;28;46517;-54
2021/06/25 04:30:01;;;;;;;;;27.50;22.50;;;;;15.79;53.25;101551.84;4942879;28;45331;-53
2021/06/25 04:32:28;;;;;;;;;26.00;25.25;;;;;15.78;53.13;101566.84;4958216;28;45322;-55
2021/06/25 04:34:54;;;;;;;;;27.25;26.50;;;;;15.75;53.55;101557.19;4942953;28;45526;-54
2021/06/25 04:37:19;;;;;;;;;26.50;26.25;;;;;15.76;53.49;101564.25;4957749;28;46959;-54
2021/06/25 04:39:44;;;;;;;;;30.50;28.50;;;;;15.75;53.81;101561.63;4942962;28;45163;-54
2021/06/25 04:42:11;;;;;;;;;30.00;26.00;;;;;15.73;54.00;101560.78;4943111;28;45255;-55
2021/06/25 04:44:38;;;;;;;;;33.50;28.50;;;;;15.75;53.56;101559.00;4942684;28;45243;-55
2021/06/25 04:47:04;;;;;;;;;30.75;30.00;;;;;15.75;53.68;101551.91;4942577;28;45238;-53
2021/06/25 04:49:29;;;;;;;;;29.50;28.75;;;;;15.80;53.66;101561.50;4942774;28;45508;-55
2021/06/25 04:51:55;;;;;;;;;28.50;26.75;;;;;15.80;53.68;101554.44;4942910;28;45335;-55
2021/06/25 04:54:20;;;;;;;;;26.75;26.25;;;;;15.81;54.09;101555.31;4941606;28;45520;-53
2021/06/25 04:56:46;;;;;;;;;33.25;27.50;;;;;15.82;53.69;101557.94;4942565;28;46318;-55
2021/06/25 04:59:11;;;;;;;;;33.00;30.50;;;;;15.85;53.72;101557.03;4942598;28;45310;-55
2021/06/25 05:01:37;;;;;;;;;31.75;27.75;;;;;15.85;54.05;101557.03;4942847;28;45352;-56
2021/06/25 05:04:02;;;;;;;;;30.75;27.50;;;;;15.86;53.82;101558.75;4942397;28;45302;-55
2021/06/25 05:06:27;;;;;;;;;34.25;29.50;;;;;15.87;54.38;101563.16;4942412;28;45388;-54
2021/06/25 05:08:53;;;;;;;;;26.25;26.25;;;;;15.89;54.08;101556.06;4942426;28;45384;-57
2021/06/25 05:11:18;;;;;;;;;31.25;30.00;;;;;15.90;53.70;101556.00;4941448;28;45301;-54
2021/06/25 05:13:44;;;;;;;;;34.25;28.25;;;;;15.92;54.51;101559.50;4942120;28;45246;-55
2021/06/25 05:16:09;;;;;;;;;29.75;28.25;;;;;15.96;54.31;101562.06;4957202;28;47942;-56
2021/06/25 05:18:34;;;;;;;;;28.00;27.00;;;;;15.88;54.07;101543.69;4942343;28;45237;-55
2021/06/25 05:21:00;;;;;;;;;30.50;29.00;;;;;16.00;54.48;101566.38;4942590;28;45371;-55
2021/06/25 05:23:25;;;;;;;;;32.25;28.25;;;;;16.02;54.23;101567.22;4942434;28;45191;-59
2021/06/25 05:25:50;;;;;;;;;32.25;28.75;;;;;16.07;54.48;101562.69;4942272;28;46162;-64
2021/06/25 05:28:16;;;;;;;;;31.75;29.25;;;;;16.09;54.53;101569.69;4942131;28;45473;-62
2021/06/25 05:30:42;;;;;;;;;33.00;28.00;;;;;16.13;54.72;101562.53;4942331;28;45410;-61
2021/06/25 05:33:07;;;;;;;;;35.50;27.75;;;;;16.15;54.26;101563.38;4941434;28;45377;-61
2021/06/25 05:35:34;;;;;;;;;31.00;25.50;;;;;16.20;54.14;101569.44;4941082;28;47220;-61
2021/06/25 05:38:06;;;;;;;;;29.25;26.50;;;;;16.25;54.51;101566.66;4942118;28;45423;-61
2021/06/25 05:40:32;;;;;;;;;33.50;27.75;;;;;16.28;54.16;101560.44;4942247;28;45236;-61
2021/06/25 05:42:57;;;;;;;;;31.50;27.75;;;;;16.29;54.23;101555.09;4941591;28;45631;-61
2021/06/25 05:45:23;;;;;;;;;32.25;27.75;;;;;16.37;54.46;101569.00;4942061;28;45189;-60
2021/06/25 05:47:48;;;;;;;;;30.75;28.75;;;;;16.39;55.46;101558.38;4941922;28;45215;-59
2021/06/25 05:50:15;;;;;;;;;33.50;29.75;;;;;16.44;54.34;101567.09;4942168;28;45248;-59
2021/06/25 05:52:44;;;;;;;;;31.00;30.00;;;;;16.47;54.63;101564.34;4941962;28;45363;-59
2021/06/25 05:55:10;;;;;;;;;29.50;26.75;;;;;16.51;54.25;101568.66;4941808;28;46002;-59
2021/06/25 05:57:36;;;;;;;;;31.25;28.50;;;;;16.55;54.43;101570.34;4956187;28;46002;-61
2021/06/25 06:00:05;;;;;;;;;32.00;30.25;;;;;16.60;54.76;101562.22;4941945;28;45216;-61
2021/06/25 06:02:31;;;;;;;;;29.75;27.50;;;;;16.62;54.71;101564.88;4941703;28;45341;-61
2021/06/25 06:04:57;;;;;;;;;33.25;29.75;;;;;16.67;54.50;101576.22;4941526;28;45927;-61
2021/06/25 06:07:22;;;;;;;;;33.25;29.50;;;;;16.72;54.81;101580.47;4941671;28;45364;-61
2021/06/25 06:09:47;;;;;;;;;35.00;30.75;;;;;16.74;54.85;101576.03;4941927;28;45488;-61
2021/06/25 06:12:13;;;;;;;;;27.00;24.75;;;;;16.79;54.50;101573.25;4941569;28;45420;-62
2021/06/25 06:14:38;;;;;;;;;31.25;30.25;;;;;16.82;54.64;101570.50;4941504;28;45293;-61
2021/06/25 06:17:04;;;;;;;;;29.50;27.50;;;;;16.82;54.72;101561.69;4941574;28;45289;-61
2021/06/25 06:19:40;;;;;;;;;30.25;27.50;;;;;16.89;54.44;101564.13;4941662;28;45255;-60
2021/06/25 06:35:51;;;;;;;;;28.50;25.25;;;;;17.16;54.45;101566.94;4930397;28;45497;-60
2021/06/25 06:38:17;;;;;;;;;33.75;29.00;;;;;17.18;54.63;101561.56;4956085;28;45520;-59
2021/06/25 06:40:43;;;;;;;;;26.50;26.25;;;;;17.24;54.47;101557.88;4941517;28;45221;-57
2021/06/25 06:43:09;;;;;;;;;23.25;22.25;;;;;17.26;54.63;101548.94;4940874;28;45272;-56
2021/06/25 06:45:35;;;;;;;;;38.75;32.00;;;;;17.30;54.80;101547.06;4944079;28;45432;-57
2021/06/25 06:48:01;;;;;;;;;31.50;29.75;;;;;17.34;54.26;101556.69;4959439;28;45343;-57
2021/06/25 06:50:26;;;;;;;;;31.00;28.25;;;;;17.37;54.54;101553.94;4943702;28;45404;-57
2021/06/25 06:52:51;;;;;;;;;31.50;30.25;;;;;17.38;54.54;101543.28;4944612;28;45600;-57
2021/06/25 06:55:22;;;;;;;;;31.25;25.75;;;;;17.43;54.33;101547.56;4944797;28;45331;-57
2021/06/25 06:57:48;;;;;;;;;27.25;25.50;;;;;17.43;54.50;101544.91;4944325;28;45326;-57
2021/06/25 07:00:14;;;;;;;;;28.50;26.00;;;;;17.40;54.68;101550.34;4959469;28;45250;-57
2021/06/25 07:02:41;;;;;;;;;29.75;28.75;;;;;17.42;54.51;101553.81;4944437;28;45689;-57
2021/06/25 07:05:08;;;;;;;;;28.00;23.25;;;;;17.46;54.31;101553.66;4944371;28;45416;-58
2021/06/25 07:07:33;;;;;;;;;32.75;27.25;;;;;17.47;54.25;101549.22;4942732;28;45345;-57
2021/06/25 07:10:00;;;;;;;;;31.25;26.00;;;;;17.50;54.74;101554.44;4944601;28;45409;-57
2021/06/25 07:12:26;;;;;;;;;26.75;23.75;;;;;17.56;54.54;101548.94;4943872;28;45532;-57
2021/06/25 07:14:51;;;;;;;;;30.00;27.25;;;;;17.59;54.33;101545.34;4944060;28;45217;-57
2021/06/25 07:17:16;;;;;;;;;29.25;27.00;;;;;17.61;54.40;101551.44;4944035;28;45231;-57
2021/06/25 07:19:42;;;;;;;;;27.75;27.25;;;;;17.64;54.40;101541.59;4944258;28;45363;-57
2021/06/25 07:22:07;;;;;;;;;32.25;26.00;;;;;17.69;54.32;101550.28;4944185;28;45163;-57
2021/06/25 07:24:32;;;;;;;;;29.25;26.50;;;;;17.68;54.42;101545.91;4944051;28;46224;-57
2021/06/25 07:26:58;;;;;;;;;24.75;23.75;;;;;17.75;53.97;101549.25;4943977;28;45240;-57
2021/06/25 07:29:24;;;;;;;;;26.25;21.50;;;;;17.82;54.24;101549.91;4943977;28;45319;-57
2021/06/25 07:31:50;;;;;;;;;24.50;24.00;;;;;17.86;53.88;101551.53;4942673;28;45765;-57
2021/06/25 07:34:15;;;;;;;;;25.00;23.00;;;;;17.93;53.89;101552.25;4943959;28;45270;-57
2021/06/25 07:36:41;;;;;;;;;26.25;24.00;;;;;17.92;53.86;101545.19;4943952;28;45325;-57
2021/06/25 07:39:08;;;;;;;;;24.50;20.50;;;;;17.92;53.95;101539.88;4943931;28;45385;-57
2021/06/25 07:41:33;;;;;;;;;18.25;17.75;;;;;17.96;54.11;101537.09;4943813;28;45463;-57
2021/06/25 07:43:59;;;;;;;;;26.00;24.25;;;;;18.02;53.82;101533.34;4942001;28;47914;-57
2021/06/25 07:46:24;;;;;;;;;26.00;22.00;;;;;18.06;53.98;101531.47;4943697;28;45306;-57
2021/06/25 07:48:50;;;;;;;;;28.25;26.25;;;;;18.12;53.80;101531.25;4944012;28;45310;-57
2021/06/25 07:51:15;;;;;;;;;27.00;25.75;;;;;18.17;53.76;101527.50;4943628;28;45315;-57
2021/06/25 07:53:41;;;;;;;;;23.25;18.25;;;;;18.20;53.54;101526.56;4943717;28;46240;-58
2021/06/25 07:56:06;;;;;;;;;19.75;19.75;;;;;18.28;53.39;101529.81;4943026;28;45251;-57
2021/06/25 07:58:31;;;;;;;;;22.25;17.25;;;;;18.34;53.34;101532.28;4943446;28;45347;-57
2021/06/25 08:00:57;;;;;;;;;24.75;23.00;;;;;18.34;53.25;101526.09;4943400;28;45534;-57
2021/06/25 08:03:22;;;;;;;;;27.50;24.25;;;;;18.39;53.09;101532.13;4943459;28;46408;-58
2021/06/25 08:05:47;;;;;;;;;31.25;25.75;;;;;18.37;53.40;101525.97;4943075;28;45267;-57
2021/06/25 08:08:13;;;;;;;;;22.25;21.25;;;;;18.44;53.39;101522.19;4943528;28;45413;-57
2021/06/25 08:10:38;;;;;;;;;25.50;23.00;;;;;18.50;52.95;101514.00;4942098;28;45531;-57
2021/06/25 08:13:04;;;;;;;;;28.50;25.50;;;;;18.55;53.07;101523.59;4941761;28;46163;-57
2021/06/25 08:15:30;;;;;;;;;31.00;27.75;;;;;18.57;53.12;101522.63;4943237;28;45456;-57
2021/06/25 08:17:56;;;;;;;;;28.75;24.50;;;;;18.60;52.98;101514.53;4943431;28;45348;-57
2021/06/25 08:20:21;;;;;;;;;21.25;19.50;;;;;18.66;52.73;101505.44;4943200;28;45390;-57
2021/06/25 08:22:46;;;;;;;;;20.50;20.00;;;;;18.71;52.73;101516.81;4943199;28;45847;-57
2021/06/25 08:25:12;;;;;;;;;22.25;19.50;;;;;18.71;52.67;101523.94;4943141;28;45407;-58
2021/06/25 08:27:37;;;;;;;;;19.00;15.00;;;;;18.71;52.75;101513.28;4942925;28;45322;-58
2021/06/25 08:30:05;;;;;;;;;20.75;17.50;;;;;18.76;52.88;101512.19;4942947;28;45480;-57
2021/06/25 08:32:30;;;;;;;;;18.75;18.75;;;;;18.80;52.48;101512.94;4943032;28;45371;-58
2021/06/25 08:34:56;;;;;;;;;27.00;23.00;;;;;18.82;52.47;101503.97;4942910;28;45267;-57
2021/06/25 08:37:21;;;;;;;;;22.75;21.00;;;;;18.91;52.26;101507.25;4943068;28;45422;-57
2021/06/25 08:39:46;;;;;;;;;25.00;23.75;;;;;18.90;52.72;101497.50;4941744;28;45408;-57
2021/06/25 08:42:14;;;;;;;;;23.50;23.50;;;;;18.94;52.77;101494.72;4942820;28;45314;-57
2021/06/25 08:44:40;;;;;;;;;21.50;21.25;;;;;18.97;52.86;101501.72;4942722;28;45181;-57
2021/06/25 08:47:07;;;;;;;;;20.75;19.00;;;;;18.98;52.64;101500.75;4942791;28;45535;-58
2021/06/25 08:49:37;;;;;;;;;26.25;23.00;;;;;19.08;52.60;101494.19;4942715;28;45346;-58
2021/06/25 08:52:04;;;;;;;;;20.50;18.75;;;;;19.19;52.26;101487.56;4942714;28;46398;-58
2021/06/25 08:54:30;;;;;;;;;25.75;21.75;;;;;19.20;52.47;101483.97;4941211;28;45485;-57
2021/06/25 08:56:57;;;;;;;;;27.00;23.25;;;;;19.26;52.54;101478.41;4941263;28;45303;-57
2021/06/25 08:59:23;;;;;;;;;25.00;22.00;;;;;19.31;52.21;101485.28;4942450;28;45309;-57
2021/06/25 09:01:50;;;;;;;;;23.75;23.25;;;;;19.39;52.54;101481.47;4942496;28;46118;-58
2021/06/25 09:04:30;;;;;;;;;21.00;19.75;;;;;19.45;52.45;101478.56;4957271;28;45254;-58
2021/06/25 09:06:55;;;;;;;;;24.75;20.75;;;;;19.55;51.94;101484.41;4941452;28;45286;-57
2021/06/25 09:09:21;;;;;;;;;23.25;22.50;;;;;19.63;52.10;101474.28;4942372;28;45317;-57
2021/06/25 09:12:06;;;;;;;;;22.75;21.75;;;;;19.74;51.95;101471.19;4942259;28;46538;-57
2021/06/25 09:15:06;;;;;;;;;25.75;23.00;;;;;19.87;51.81;101467.09;4942161;28;45278;-58
2021/06/25 09:17:54;;;;;;;;;18.50;17.00;;;;;19.92;51.90;101459.78;4942151;28;45235;-57
2021/06/25 09:20:30;;;;;;;;;23.75;20.00;;;;;20.00;51.89;101472.78;4941185;28;45207;-57
2021/06/25 09:22:55;;;;;;;;;25.25;23.50;;;;;20.04;52.07;101461.06;4956984;28;47158;-56
2021/06/25 09:25:21;;;;;;;;;26.75;24.75;;;;;20.12;51.45;101463.38;4942271;28;45325;-57
2021/06/25 09:27:53;;;;;;;;;22.75;21.00;;;;;20.18;51.78;101479.13;4941979;28;45318;-56
2021/06/25 09:30:19;;;;;;;;;22.75;20.00;;;;;20.26;51.13;101470.78;4940901;28;45377;-57
2021/06/25 09:32:44;;;;;;;;;26.50;24.25;;;;;20.33;51.59;101461.59;4941976;28;45369;-57
2021/06/25 09:35:27;;;;;;;;;20.75;19.00;;;;;20.39;51.19;101458.66;4942050;28;45251;-56
2021/06/25 09:37:53;;;;;;;;;27.25;23.50;;;;;20.49;51.59;101463.56;4942488;28;45296;-57
2021/06/25 09:40:20;;;;;;;;;18.75;18.75;;;;;20.56;50.80;101455.22;4941830;28;45497;-56
2021/06/25 09:43:06;;;;;;;;;20.75;18.50;;;;;20.61;51.35;101455.88;4941510;28;46443;-56
2021/06/25 09:45:32;;;;;;;;;19.75;17.50;;;;;20.70;51.21;101457.25;4941945;28;45267;-57
2021/06/25 09:47:57;;;;;;;;;26.75;20.25;;;;;20.76;50.83;101446.34;4940601;28;45390;-57
2021/06/25 09:50:31;;;;;;;;;23.50;20.25;;;;;20.81;51.46;101454.16;4942038;28;45266;-56
2021/06/25 09:52:58;;;;;;;;;24.25;21.00;;;;;20.87;51.26;101445.84;4941743;28;46218;-57
2021/06/25 09:55:50;;;;;;;;;23.50;20.50;;;;;20.91;51.00;101444.75;4941773;28;45350;-57
2021/06/25 10:03:40;;;;;;;;;18.00;16.50;;;;;21.14;50.90;101439.28;4941452;28;45847;-58
2021/06/25 10:06:11;;;;;;;;;22.75;18.75;;;;;21.26;51.18;101436.88;4941450;28;45307;-57
2021/06/25 10:08:37;;;;;;;;;20.50;20.25;;;;;21.33;51.08;101439.25;4941634;28;45284;-57
2021/06/25 10:11:05;;;;;;;;;15.25;14.75;;;;;21.37;51.17;101436.38;4956285;28;45557;-57
2021/06/25 10:13:37;;;;;;;;;11.50;11.50;;;;;21.48;50.23;101429.63;4940191;28;48154;-57
2021/06/25 10:16:07;;;;;;;;;15.00;15.00;;;;;21.53;50.52;101433.78;4941367;28;45342;-57
2021/06/25 10:18:57;;;;;;;;;16.50;16.25;;;;;21.60;50.07;101434.41;4941173;28;45378;-57
2021/06/25 10:21:25;;;;;;;;;17.75;16.00;;;;;21.69;50.00;101438.44;4936330;28;45408;-58
2021/06/25 10:23:53;;;;;;;;;16.25;14.25;;;;;21.72;49.74;101439.16;4941358;28;45507;-57
2021/06/25 10:26:20;;;;;;;;;16.25;15.00;;;;;21.80;49.56;101424.50;4941444;28;45355;-57
2021/06/25 10:28:47;;;;;;;;;15.75;14.75;;;;;21.88;49.78;101430.34;4941260;28;45326;-57
2021/06/25 10:31:15;;;;;;;;;19.00;17.00;;;;;21.88;49.79;101412.47;4941029;28;45509;-57
2021/06/25 10:33:42;;;;;;;;;14.25;14.25;;;;;21.98;49.98;101415.53;4955969;28;46154;-58
2021/06/25 10:36:11;;;;;;;;;17.00;14.50;;;;;22.03;49.43;101429.53;4941282;28;45254;-58
2021/06/25 10:38:42;;;;;;;;;15.00;15.00;;;;;22.11;49.44;101420.25;4941226;28;45239;-58
2021/06/25 10:41:09;;;;;;;;;18.75;15.25;;;;;22.23;49.67;101422.31;4941267;28;45238;-57
2021/06/25 10:43:53;;;;;;;;;17.00;15.50;;;;;22.35;49.66;101418.97;4940712;28;46338;-58
2021/06/25 10:46:24;;;;;;;;;17.25;17.25;;;;;22.49;49.45;101420.94;4941144;28;45315;-58
2021/06/25 10:48:53;;;;;;;;;15.50;14.25;;;;;22.60;49.30;101414.16;4941133;28;45197;-58
2021/06/25 10:51:31;;;;;;;;;15.50;15.00;;;;;22.79;49.78;101414.00;4941041;28;45244;-58
2021/06/25 10:54:04;;;;;;;;;11.75;11.75;;;;;23.02;49.32;101412.72;4939707;28;47166;-58
2021/06/25 10:56:29;;;;;;;;;10.25;9.50;;;;;23.21;48.93;101402.72;4941104;28;45270;-58
2021/06/25 10:59:25;;;;;;;;;14.50;12.50;;;;;23.47;49.35;101410.19;4941015;28;45493;-58
2021/06/25 11:02:17;;;;;;;;;14.75;14.25;;;;;23.75;48.97;101428.25;4941111;28;45350;-58
2021/06/25 11:04:44;;;;;;;;;13.75;13.00;;;;;23.96;48.80;101411.84;4938666;28;46195;-57
2021/06/25 11:07:18;;;;;;;;;16.50;15.25;;;;;24.14;48.91;101399.13;4940973;28;45243;-58
2021/06/25 11:09:51;;;;;;;;;14.00;13.50;;;;;24.33;48.74;101407.75;4940976;28;45315;-58
2021/06/25 11:12:22;;;;;;;;;17.75;14.50;;;;;24.52;48.73;101408.47;4955297;28;45446;-57
2021/06/25 11:14:49;;;;;;;;;19.75;16.75;;;;;24.63;48.72;101404.13;4940794;28;46319;-57
2021/06/25 11:17:53;;;;;;;;;19.00;19.00;;;;;24.75;48.72;101398.97;4939522;28;45307;-58
2021/06/25 11:20:18;;;;;;;;;20.00;17.75;;;;;24.83;48.04;101400.19;4940734;28;45326;-57
2021/06/25 11:22:51;;;;;;;;;19.25;15.25;;;;;24.90;48.07;101397.97;4940866;28;45325;-58
2021/06/25 11:25:36;;;;;;;;;17.00;15.00;;;;;24.93;48.12;101392.41;4940702;28;45428;-58
2021/06/25 11:28:12;;;;;;;;;18.00;16.75;;;;;24.99;48.30;101399.19;4940313;28;45334;-58
2021/06/25 11:31:02;;;;;;;;;20.25;15.25;;;;;25.03;47.89;101384.63;4941864;28;45393;-58